createdAt,value
2022-08-23T00:00:13.022Z,14.50
2022-08-23T00:02:43.756Z,14.50
2022-08-23T00:05:13.376Z,14.50
2022-08-23T00:07:45.236Z,14.50
2022-08-23T00:10:16.716Z,14.40
2022-08-23T00:12:46.258Z,14.40
2022-08-23T00:15:16.476Z,14.40
2022-08-23T00:17:46.385Z,14.40
2022-08-23T00:20:17.030Z,14.30
2022-08-23T00:22:45.619Z,14.40
2022-08-23T00:25:16.869Z,14.30
2022-08-23T00:27:45.567Z,14.30
2022-08-23T00:30:14.799Z,14.30
2022-08-23T00:32:45.721Z,14.30
2022-08-23T00:35:26.184Z,14.30
2022-08-23T00:38:32.999Z,14.40
2022-08-23T00:40:47.262Z,14.40
2022-08-23T00:43:36.233Z,14.40
2022-08-23T00:46:32.448Z,14.40
2022-08-23T00:49:05.841Z,14.40
2022-08-23T00:51:48.769Z,14.30
2022-08-23T00:54:24.140Z,14.30
2022-08-23T00:56:53.570Z,14.20
2022-08-23T00:59:22.593Z,14.30
2022-08-23T01:01:51.706Z,14.20
2022-08-23T01:04:21.811Z,14.20
2022-08-23T01:06:53.386Z,14.20
2022-08-23T01:09:23.330Z,14.20
2022-08-23T01:11:57.759Z,14.20
2022-08-23T01:14:31.152Z,14.20
2022-08-23T01:17:05.960Z,14.10
2022-08-23T01:19:38.677Z,14.20
2022-08-23T01:22:13.485Z,14.30
2022-08-23T01:25:06.864Z,14.20
2022-08-23T01:27:32.209Z,14.20
2022-08-23T01:30:01.783Z,14.10
2022-08-23T01:32:33.101Z,14.10
2022-08-23T01:35:02.090Z,14.20
2022-08-23T01:37:30.647Z,14.20
2022-08-23T01:40:00.408Z,14.20
2022-08-23T01:42:29.550Z,14.20
2022-08-23T01:44:58.628Z,14.20
2022-08-23T01:47:26.925Z,14.30
2022-08-23T01:49:55.714Z,14.30
2022-08-23T01:52:24.001Z,14.30
2022-08-23T01:54:52.849Z,14.30
2022-08-23T01:57:22.537Z,14.30
2022-08-23T01:59:50.762Z,14.30
2022-08-23T02:02:19.879Z,14.20
2022-08-23T02:04:48.396Z,14.20
2022-08-23T02:07:16.703Z,14.20
2022-08-23T02:09:45.052Z,14.20
2022-08-23T02:12:13.425Z,14.30
2022-08-23T02:14:43.597Z,14.30
2022-08-23T02:17:11.961Z,14.20
2022-08-23T02:19:40.662Z,14.20
2022-08-23T02:22:09.659Z,14.30
2022-08-23T02:24:41.811Z,14.20
2022-08-23T02:27:10.460Z,14.30
2022-08-23T02:29:39.961Z,14.20
2022-08-23T02:32:10.593Z,14.20
2022-08-23T02:34:40.811Z,14.20
2022-08-23T02:37:10.530Z,14.20
2022-08-23T02:39:39.365Z,14.20
2022-08-23T02:42:11.765Z,14.20
2022-08-23T02:44:40.713Z,14.20
2022-08-23T02:47:12.020Z,14.20
2022-08-23T02:49:40.389Z,14.20
2022-08-23T02:52:09.094Z,14.20
2022-08-23T02:54:37.595Z,14.20
2022-08-23T02:57:06.486Z,14.10
2022-08-23T02:59:35.426Z,14.10
2022-08-23T03:02:04.076Z,14.10
2022-08-23T03:04:33.784Z,14.10
2022-08-23T03:07:02.357Z,14.10
2022-08-23T03:09:30.603Z,14.10
2022-08-23T03:11:58.810Z,14.10
2022-08-23T03:14:27.882Z,14.00
2022-08-23T03:16:58.428Z,14.00
2022-08-23T03:19:26.835Z,14.00
2022-08-23T03:21:57.400Z,14.00
2022-08-23T03:24:25.930Z,14.00
2022-08-23T03:26:54.152Z,14.00
2022-08-23T03:29:23.097Z,14.00
2022-08-23T03:31:51.649Z,14.00
2022-08-23T03:34:22.404Z,14.00
2022-08-23T03:36:51.036Z,13.90
2022-08-23T03:39:20.640Z,13.90
2022-08-23T03:41:49.138Z,13.90
2022-08-23T03:44:17.466Z,14.00
2022-08-23T03:46:45.737Z,14.00
2022-08-23T03:49:13.893Z,14.00
2022-08-23T03:51:42.414Z,14.00
2022-08-23T03:54:10.977Z,14.00
2022-08-23T03:56:52.564Z,14.10
2022-08-23T03:59:20.880Z,14.10
2022-08-23T04:01:49.934Z,14.20
2022-08-23T04:04:18.325Z,14.20
2022-08-23T04:06:47.109Z,14.20
2022-08-23T04:09:16.591Z,14.10
2022-08-23T04:11:46.814Z,14.20
2022-08-23T04:14:15.102Z,14.20
2022-08-23T04:16:44.433Z,14.30
2022-08-23T04:19:15.732Z,14.30
2022-08-23T04:21:48.284Z,14.40
2022-08-23T04:24:17.370Z,14.40
2022-08-23T04:26:49.478Z,14.40
2022-08-23T04:29:33.744Z,14.50
2022-08-23T04:32:05.482Z,14.60
2022-08-23T04:34:36.898Z,14.60
2022-08-23T04:37:09.217Z,14.70
2022-08-23T04:39:58.967Z,14.70
2022-08-23T04:42:27.989Z,14.70
2022-08-23T04:44:56.217Z,14.70
2022-08-23T04:47:25.049Z,14.80
2022-08-23T04:49:53.333Z,14.80
2022-08-23T04:52:21.895Z,14.90
2022-08-23T04:54:50.495Z,14.90
2022-08-23T04:57:19.047Z,15.10
2022-08-23T04:59:48.670Z,15.20
2022-08-23T05:02:16.898Z,15.20
2022-08-23T05:04:45.198Z,15.30
2022-08-23T05:07:15.569Z,15.40
2022-08-23T05:09:44.060Z,15.40
2022-08-23T05:12:12.610Z,15.50
2022-08-23T05:14:40.805Z,15.50
2022-08-23T05:17:14.394Z,15.70
2022-08-23T05:19:44.206Z,15.80
2022-08-23T05:22:15.651Z,15.90
2022-08-23T05:24:43.901Z,15.90
2022-08-23T05:27:13.757Z,15.90
2022-08-23T05:29:42.367Z,16.00
2022-08-23T05:32:10.741Z,16.10
2022-08-23T05:34:40.487Z,16.20
2022-08-23T05:37:09.281Z,16.20
2022-08-23T05:39:37.653Z,16.20
2022-08-23T05:42:06.586Z,16.30
2022-08-23T05:44:36.426Z,16.40
2022-08-23T05:47:11.075Z,16.40
2022-08-23T05:49:41.881Z,16.40
2022-08-23T05:52:13.004Z,16.50
2022-08-23T05:54:42.114Z,16.60
2022-08-23T05:57:11.792Z,16.60
2022-08-23T05:59:42.058Z,16.70
2022-08-23T06:02:10.727Z,16.80
2022-08-23T06:04:40.565Z,16.80
2022-08-23T06:07:09.992Z,16.90
2022-08-23T06:09:38.585Z,17.00
2022-08-23T06:12:07.055Z,17.00
2022-08-23T06:14:35.502Z,17.20
2022-08-23T06:17:04.030Z,17.20
2022-08-23T06:19:32.322Z,17.40
2022-08-23T06:22:02.014Z,17.40
2022-08-23T06:24:30.525Z,17.40
2022-08-23T06:26:58.989Z,17.40
2022-08-23T06:29:27.308Z,17.40
2022-08-23T06:31:56.161Z,17.50
2022-08-23T06:34:26.798Z,17.50
2022-08-23T06:36:58.425Z,17.60
2022-08-23T06:39:34.401Z,17.70
2022-08-23T06:42:22.485Z,17.70
2022-08-23T06:44:56.872Z,17.70
2022-08-23T06:47:25.297Z,17.90
2022-08-23T06:49:57.430Z,18.00
2022-08-23T06:52:27.559Z,18.00
2022-08-23T06:54:57.790Z,18.10
2022-08-23T06:57:26.601Z,18.10
2022-08-23T06:59:55.232Z,18.30
2022-08-23T07:02:24.104Z,18.50
2022-08-23T07:04:54.315Z,18.60
2022-08-23T07:07:22.871Z,18.60
2022-08-23T07:09:51.058Z,18.70
2022-08-23T07:12:22.132Z,18.70
2022-08-23T07:14:50.634Z,18.80
2022-08-23T07:17:18.767Z,18.80
2022-08-23T07:19:47.169Z,18.80
2022-08-23T07:22:15.879Z,18.80
2022-08-23T07:24:44.215Z,18.90
2022-08-23T07:27:12.789Z,18.90
2022-08-23T07:29:42.876Z,19.00
2022-08-23T07:32:11.695Z,19.10
2022-08-23T07:34:39.976Z,19.10
2022-08-23T07:37:11.511Z,19.20
2022-08-23T07:39:44.240Z,19.30
2022-08-23T07:42:23.613Z,19.40
2022-08-23T07:44:54.312Z,19.50
2022-08-23T07:47:23.270Z,19.60
2022-08-23T07:49:52.037Z,19.70
2022-08-23T07:52:20.317Z,19.80
2022-08-23T07:54:49.332Z,19.90
2022-08-23T07:57:18.193Z,20.00
2022-08-23T07:59:48.616Z,19.90
2022-08-23T08:02:18.536Z,20.00
2022-08-23T08:04:46.758Z,20.00
2022-08-23T08:07:20.739Z,20.00
2022-08-23T08:09:49.735Z,20.10
2022-08-23T08:12:18.108Z,20.00
2022-08-23T08:14:48.258Z,20.10
2022-08-23T08:17:20.002Z,20.00
2022-08-23T08:19:50.511Z,20.10
2022-08-23T08:22:19.137Z,20.10
2022-08-23T08:24:47.809Z,20.30
2022-08-23T08:27:16.083Z,20.40
2022-08-23T08:29:44.998Z,20.60
2022-08-23T08:32:14.170Z,20.70
2022-08-23T08:34:44.243Z,21.00
2022-08-23T08:37:12.759Z,21.20
2022-08-23T08:39:45.919Z,21.40
2022-08-23T08:42:39.282Z,21.60
2022-08-23T08:45:11.750Z,22.10
2022-08-23T08:47:46.602Z,22.70
2022-08-23T08:50:24.236Z,23.10
2022-08-23T08:52:56.351Z,23.40
2022-08-23T08:55:30.089Z,23.00
2022-08-23T08:57:58.494Z,22.90
2022-08-23T09:00:30.395Z,23.00
2022-08-23T09:03:01.110Z,23.00
2022-08-23T09:05:34.458Z,23.00
2022-08-23T09:08:21.833Z,22.50
2022-08-23T09:10:59.948Z,22.40
2022-08-23T09:13:53.829Z,22.70
2022-08-23T09:16:31.612Z,22.70
2022-08-23T09:19:02.682Z,22.80
2022-08-23T09:21:38.974Z,22.80
2022-08-23T09:24:07.402Z,22.70
2022-08-23T09:26:36.810Z,22.70
2022-08-23T09:29:14.899Z,22.70
2022-08-23T09:31:45.480Z,22.90
2022-08-23T09:34:19.703Z,23.00
2022-08-23T09:36:52.155Z,23.30
2022-08-23T09:39:30.563Z,23.60
2022-08-23T09:42:00.770Z,23.70
2022-08-23T09:44:37.334Z,23.90
2022-08-23T09:47:11.833Z,23.50
2022-08-23T09:49:43.724Z,23.30
2022-08-23T09:52:22.288Z,23.40
2022-08-23T09:55:03.521Z,23.40
2022-08-23T09:57:34.952Z,23.50
2022-08-23T10:00:19.389Z,23.70
2022-08-23T10:02:47.959Z,23.50
2022-08-23T10:05:29.270Z,22.90
2022-08-23T10:08:01.145Z,22.80
2022-08-23T10:10:36.605Z,22.70
2022-08-23T10:13:06.384Z,22.60
2022-08-23T10:15:49.679Z,22.40
2022-08-23T10:18:29.534Z,22.50
2022-08-23T10:21:06.474Z,22.50
2022-08-23T10:23:49.510Z,22.30
2022-08-23T10:26:25.225Z,22.30
2022-08-23T10:29:21.030Z,22.30
2022-08-23T10:31:59.512Z,22.30
2022-08-23T10:34:46.017Z,22.20
2022-08-23T10:37:43.819Z,22.10
2022-08-23T10:40:20.999Z,22.20
2022-08-23T10:42:59.860Z,22.80
2022-08-23T10:45:30.773Z,23.70
2022-08-23T10:48:15.446Z,23.80
2022-08-23T10:50:55.475Z,23.50
2022-08-23T10:53:30.387Z,23.40
2022-08-23T10:56:04.371Z,23.50
2022-08-23T10:58:37.215Z,23.30
2022-08-23T11:01:07.485Z,23.00
2022-08-23T11:03:44.505Z,23.00
2022-08-23T11:06:29.295Z,22.50
2022-08-23T11:09:03.284Z,22.30
2022-08-23T11:11:42.342Z,22.30
2022-08-23T11:14:13.068Z,22.40
2022-08-23T11:16:48.413Z,22.40
2022-08-23T11:19:52.686Z,22.40
2022-08-23T11:22:23.148Z,22.30
2022-08-23T11:24:55.796Z,22.60
2022-08-23T11:27:31.770Z,23.10
2022-08-23T11:30:15.407Z,24.30
2022-08-23T11:32:46.674Z,24.30
2022-08-23T11:35:37.281Z,23.90
2022-08-23T11:38:11.639Z,23.50
2022-08-23T11:41:00.194Z,23.30
2022-08-23T11:43:34.716Z,23.20
2022-08-23T11:46:36.281Z,22.80
2022-08-23T11:49:41.445Z,22.80
2022-08-23T11:52:26.554Z,22.90
2022-08-23T11:55:22.450Z,22.90
2022-08-23T11:58:05.966Z,22.90
2022-08-23T12:00:59.570Z,22.90
2022-08-23T12:03:34.412Z,22.50
2022-08-23T12:06:12.587Z,22.20
2022-08-23T12:09:02.091Z,22.10
2022-08-23T12:12:01.106Z,22.20
2022-08-23T12:14:51.521Z,22.20
2022-08-23T12:17:57.155Z,22.20
2022-08-23T12:20:32.642Z,22.20
2022-08-23T12:23:22.994Z,22.20
2022-08-23T12:26:02.218Z,22.20
2022-08-23T12:28:39.383Z,22.00
2022-08-23T12:31:18.242Z,21.90
2022-08-23T12:34:12.859Z,21.70
2022-08-23T12:36:50.294Z,21.70
2022-08-23T12:39:25.432Z,21.80
2022-08-23T12:41:59.016Z,21.80
2022-08-23T12:44:29.242Z,21.90
2022-08-23T12:46:57.823Z,21.90
2022-08-23T12:49:29.859Z,21.90
2022-08-23T12:52:01.879Z,21.90
2022-08-23T12:54:40.431Z,22.00
2022-08-23T12:57:11.953Z,22.00
2022-08-23T12:59:47.946Z,21.90
2022-08-23T13:02:24.044Z,21.60
2022-08-23T13:04:54.054Z,21.50
2022-08-23T13:07:26.663Z,21.40
2022-08-23T13:09:56.788Z,21.30
2022-08-23T13:12:27.064Z,21.30
2022-08-23T13:14:57.519Z,21.30
2022-08-23T13:17:36.719Z,21.20
2022-08-23T13:20:21.916Z,21.20
2022-08-23T13:23:01.485Z,21.30
2022-08-23T13:25:33.359Z,21.30
2022-08-23T13:28:04.194Z,21.30
2022-08-23T13:30:36.321Z,21.20
2022-08-23T13:33:22.088Z,21.20
2022-08-23T13:35:51.806Z,21.20
2022-08-23T13:38:25.881Z,21.20
2022-08-23T13:41:01.358Z,21.30
2022-08-23T13:43:35.033Z,21.40
2022-08-23T13:46:14.060Z,21.40
2022-08-23T13:48:48.504Z,21.20
2022-08-23T13:51:25.424Z,21.10
2022-08-23T13:53:56.747Z,21.00
2022-08-23T13:56:26.600Z,21.00
2022-08-23T13:58:57.887Z,21.00
2022-08-23T14:01:26.913Z,20.90
2022-08-23T14:03:55.652Z,20.90
2022-08-23T14:06:25.603Z,20.90
2022-08-23T14:08:55.265Z,21.00
2022-08-23T14:11:23.541Z,21.00
2022-08-23T14:13:52.396Z,20.90
2022-08-23T14:16:34.180Z,20.80
2022-08-23T14:20:31.274Z,20.80
2022-08-23T14:21:53.885Z,20.70
2022-08-23T14:24:23.590Z,20.70
2022-08-23T14:26:52.658Z,20.70
2022-08-23T14:29:22.721Z,20.70
2022-08-23T14:31:52.411Z,20.60
2022-08-23T14:34:21.554Z,20.50
2022-08-23T14:39:41.463Z,20.50
2022-08-23T14:42:11.103Z,20.40
2022-08-23T14:44:39.326Z,20.40
2022-08-23T14:47:07.786Z,20.40
2022-08-23T14:49:36.478Z,20.50
2022-08-23T14:52:05.220Z,20.50
2022-08-23T14:54:34.499Z,20.50
2022-08-23T14:57:04.373Z,20.50
2022-08-23T14:59:32.710Z,20.60
2022-08-23T15:02:01.285Z,20.60
2022-08-23T15:04:34.062Z,20.60
2022-08-23T15:07:19.614Z,20.50
2022-08-23T15:09:48.638Z,20.50
2022-08-23T15:15:11.515Z,20.40
2022-08-23T15:17:48.455Z,20.40
2022-08-23T15:20:16.945Z,20.30
2022-08-23T15:22:55.790Z,20.30
2022-08-23T15:25:25.035Z,20.20
2022-08-23T15:27:55.646Z,20.20
2022-08-23T15:30:25.166Z,20.10
2022-08-23T15:32:56.660Z,20.00
2022-08-23T15:35:26.026Z,20.00
2022-08-23T15:37:56.008Z,19.90
2022-08-23T15:40:25.666Z,19.90
2022-08-23T15:42:55.988Z,19.90
2022-08-23T15:45:24.536Z,19.90
2022-08-23T15:47:55.357Z,19.80
2022-08-23T15:50:26.670Z,19.90
2022-08-23T15:52:55.910Z,19.90
2022-08-23T15:55:24.798Z,19.90
2022-08-23T15:57:58.400Z,19.90
2022-08-23T16:00:28.077Z,19.90
2022-08-23T16:03:27.977Z,19.90
2022-08-23T16:05:47.995Z,19.90
2022-08-23T16:08:20.762Z,19.80
2022-08-23T16:10:49.407Z,19.90
2022-08-23T16:13:19.824Z,19.80
2022-08-23T16:15:48.266Z,19.80
2022-08-23T16:18:17.086Z,19.80
2022-08-23T16:20:46.451Z,19.80
2022-08-23T16:23:15.104Z,19.70
2022-08-23T16:25:43.668Z,19.70
2022-08-23T16:28:11.967Z,19.60
2022-08-23T16:30:41.994Z,19.60
2022-08-23T16:33:10.363Z,19.60
2022-08-23T16:35:38.686Z,19.60
2022-08-23T16:38:07.129Z,19.50
2022-08-23T16:40:35.366Z,19.50
2022-08-23T16:43:04.045Z,19.50
2022-08-23T16:45:32.585Z,19.40
2022-08-23T16:48:02.294Z,19.40
2022-08-23T16:50:32.963Z,19.30
2022-08-23T16:53:05.087Z,19.30
2022-08-23T16:55:35.802Z,19.30
2022-08-23T16:58:04.739Z,19.20
2022-08-23T17:00:33.062Z,19.20
2022-08-23T17:03:03.240Z,19.20
2022-08-23T17:05:32.041Z,19.10
2022-08-23T17:08:01.921Z,19.00
2022-08-23T17:10:30.313Z,19.00
2022-08-23T17:12:59.973Z,18.90
2022-08-23T17:15:30.722Z,19.00
2022-08-23T17:18:00.859Z,18.90
2022-08-23T17:20:32.831Z,18.90
2022-08-23T17:23:01.519Z,18.90
2022-08-23T17:25:34.723Z,18.90
2022-08-23T17:28:04.680Z,18.80
2022-08-23T17:30:33.128Z,18.70
2022-08-23T17:33:01.780Z,18.70
2022-08-23T17:35:33.627Z,18.70
2022-08-23T17:38:03.382Z,18.70
2022-08-23T17:40:35.190Z,18.60
2022-08-23T17:43:03.669Z,18.70
2022-08-23T17:45:35.609Z,18.60
2022-08-23T17:48:04.350Z,18.50
2022-08-23T17:50:34.652Z,18.60
2022-08-23T17:53:04.358Z,18.50
2022-08-23T17:55:35.805Z,18.50
2022-08-23T17:58:04.904Z,18.40
2022-08-23T18:00:34.737Z,18.40
2022-08-23T18:03:03.212Z,18.40
2022-08-23T18:05:34.491Z,18.40
2022-08-23T18:08:03.303Z,18.40
2022-08-23T18:10:31.572Z,18.30
2022-08-23T18:13:00.227Z,18.30
2022-08-23T18:15:30.184Z,18.30
2022-08-23T18:18:00.986Z,18.30
2022-08-23T18:20:30.253Z,18.20
2022-08-23T18:23:00.735Z,18.20
2022-08-23T18:25:30.481Z,18.10
2022-08-23T18:28:08.180Z,18.10
2022-08-23T18:30:38.017Z,18.10
2022-08-23T18:33:07.598Z,18.10
2022-08-23T18:35:41.923Z,18.10
2022-08-23T18:38:13.390Z,18.10
2022-08-23T18:40:46.366Z,18.00
2022-08-23T18:43:16.947Z,18.00
2022-08-23T18:45:46.366Z,18.00
2022-08-23T18:48:15.378Z,18.00
2022-08-23T18:50:43.732Z,18.00
2022-08-23T18:53:14.322Z,18.00
2022-08-23T18:55:44.062Z,17.90
2022-08-23T18:58:12.888Z,17.90
2022-08-23T19:00:41.823Z,17.90
2022-08-23T19:03:11.026Z,17.90
2022-08-23T19:05:42.390Z,17.90
2022-08-23T19:08:13.177Z,17.90
2022-08-23T19:10:42.216Z,17.80
2022-08-23T19:13:12.853Z,17.80
2022-08-23T19:15:42.133Z,17.70
2022-08-23T19:18:11.093Z,17.70
2022-08-23T19:20:39.932Z,17.70
2022-08-23T19:23:08.122Z,17.70
2022-08-23T19:25:38.661Z,17.70
2022-08-23T19:28:07.260Z,17.70
2022-08-23T19:30:35.686Z,17.70
2022-08-23T19:33:04.284Z,17.60
2022-08-23T19:35:32.811Z,17.60
2022-08-23T19:38:01.098Z,17.50
2022-08-23T19:40:29.668Z,17.50
2022-08-23T19:43:00.495Z,17.40
2022-08-23T19:45:32.032Z,17.50
2022-08-23T19:48:01.038Z,17.40
2022-08-23T19:50:29.977Z,17.40
2022-08-23T19:52:58.444Z,17.40
2022-08-23T19:55:27.937Z,17.50
2022-08-23T19:57:58.311Z,17.40
2022-08-23T20:00:29.440Z,17.40
2022-08-23T20:02:57.765Z,17.50
2022-08-23T20:05:25.973Z,17.40
2022-08-23T20:07:54.332Z,17.40
2022-08-23T20:10:23.291Z,17.40
2022-08-23T20:12:51.489Z,17.40
2022-08-23T20:15:22.231Z,17.40
2022-08-23T20:17:50.594Z,17.40
2022-08-23T20:20:18.796Z,17.40
2022-08-23T20:23:04.838Z,17.40
2022-08-23T20:25:33.688Z,17.40
2022-08-23T20:28:05.243Z,17.30
2022-08-23T20:30:35.750Z,17.30
2022-08-23T20:33:05.147Z,17.30
2022-08-23T20:35:33.514Z,17.30
2022-08-23T20:38:02.613Z,17.30
2022-08-23T20:40:31.429Z,17.20
2022-08-23T20:42:59.777Z,17.20
2022-08-23T20:45:27.961Z,17.20
2022-08-23T20:47:57.549Z,17.10
2022-08-23T20:50:26.774Z,17.10
2022-08-23T20:52:56.027Z,17.10
2022-08-23T20:55:27.669Z,17.00
2022-08-23T20:57:55.878Z,17.00
2022-08-23T21:00:24.091Z,16.90
2022-08-23T21:02:52.437Z,17.00
2022-08-23T21:05:22.048Z,16.90
2022-08-23T21:07:51.243Z,16.80
2022-08-23T21:10:19.908Z,16.80
2022-08-23T21:12:48.412Z,16.70
2022-08-23T21:15:16.707Z,16.70
2022-08-23T21:17:47.022Z,16.60
2022-08-23T21:20:16.162Z,16.50
2022-08-23T21:22:46.343Z,16.40
2022-08-23T21:25:14.614Z,16.30
2022-08-23T21:27:43.043Z,16.30
2022-08-23T21:30:12.539Z,16.20
2022-08-23T21:32:40.789Z,16.10
2022-08-23T21:35:09.910Z,16.00
2022-08-23T21:37:38.633Z,16.00
2022-08-23T21:40:09.410Z,15.90
2022-08-23T21:42:37.950Z,15.90
2022-08-23T21:45:07.559Z,15.80
2022-08-23T21:47:35.801Z,15.70
2022-08-23T21:50:04.210Z,15.70
2022-08-23T21:52:32.762Z,15.60
2022-08-23T21:55:01.420Z,15.60
2022-08-23T21:57:31.372Z,15.60
2022-08-23T22:00:00.813Z,15.50
2022-08-23T22:02:29.081Z,15.50
2022-08-23T22:04:57.273Z,15.40
2022-08-23T22:07:25.852Z,15.40
2022-08-23T22:09:54.100Z,15.30
2022-08-23T22:12:25.043Z,15.20
2022-08-23T22:14:55.974Z,15.10
2022-08-23T22:17:24.158Z,15.10
2022-08-23T22:19:52.507Z,15.00
2022-08-23T22:22:21.427Z,15.00
2022-08-23T22:24:49.581Z,15.00
2022-08-23T22:27:18.650Z,14.80
2022-08-23T22:29:47.059Z,14.90
2022-08-23T22:32:16.606Z,14.80
2022-08-23T22:34:44.838Z,14.70
2022-08-23T22:37:13.216Z,14.70
2022-08-23T22:39:41.691Z,14.70
2022-08-23T22:42:10.184Z,14.70
2022-08-23T22:44:39.070Z,14.70
2022-08-23T22:47:07.841Z,14.70
2022-08-23T22:49:37.442Z,14.70
2022-08-23T22:52:06.004Z,14.70
2022-08-23T22:54:34.497Z,14.70
2022-08-23T22:57:02.621Z,14.70
2022-08-23T22:59:32.151Z,14.80
2022-08-23T23:02:03.354Z,14.80
2022-08-23T23:04:34.022Z,14.80
2022-08-23T23:07:04.020Z,14.80
2022-08-23T23:09:32.352Z,14.80
2022-08-23T23:12:00.781Z,14.70
2022-08-23T23:14:29.086Z,14.70
2022-08-23T23:16:57.411Z,14.60
2022-08-23T23:19:42.973Z,14.50
2022-08-23T23:22:15.628Z,14.40
2022-08-23T23:24:43.911Z,14.30
2022-08-23T23:27:12.474Z,14.20
2022-08-23T23:29:42.114Z,14.10
2022-08-23T23:32:10.318Z,14.00
2022-08-23T23:34:38.817Z,14.00
2022-08-23T23:37:07.569Z,13.90
2022-08-23T23:39:37.338Z,13.90
2022-08-23T23:42:05.955Z,13.80
2022-08-23T23:44:34.369Z,13.70
2022-08-23T23:47:03.160Z,13.70
2022-08-23T23:49:33.641Z,13.60
2022-08-23T23:52:03.244Z,13.60
2022-08-23T23:54:31.913Z,13.60
2022-08-23T23:57:01.904Z,13.60
2022-08-23T23:59:30.565Z,13.50
